Branchville, SC (29432)

1:34 PM EST on February 12, 2016 (GMT -0500)
Reevesville | | Change Station
CLOSE
Current Station
Personal Weather Station
Location: Reevesville, SC
Elevation: 105 ft
Nearby Weather Stations

Elev 105 ft 33.22 °N, 80.64 °W | Updated 8 seconds ago

Mostly Cloudy
Mostly Cloudy
52.7 °F
Feels Like 52.7 °F
N
0.4
Wind Variable Wind from NNE
Gusts 2.5 mph

Today
High -- | Low -- °F
--% Chance of Precip.
Yesterday
High -- | Low -- °F
Precip. -- in
Pressure 30.08 in
Visibility 10.0 miles
Clouds Few 12000 ft
Dew Point 31 °F
Humidity 43%
Rainfall 0.00 in
Snow Depth Not available.
7:10 AM 6:05 PM
Waxing Crescent, 22% visible
METAR KOGB 121753Z AUTO VRB03KT 10SM FEW120 10/03 A3008 RMK AO2 SLP184 T01000028 10100 20050 58020
Pressure 30.08 in
Visibility 10.0 miles
Clouds Few 12000 ft
Dew Point 31 °F
Humidity 43%
Rainfall 0.00 in
Snow Depth Not available.
7:10 AM 6:05 PM
Waxing Crescent, 22% visible
METAR KOGB 121753Z AUTO VRB03KT 10SM FEW120 10/03 A3008 RMK AO2 SLP184 T01000028 10100 20050 58020

10-Day Weather Forecast

Almanac

Astronomy

Feb. 12, 2016 Rise Set
Actual Time
Civil Twilight
Nautical Twilight
Astronomical Twilight
Moon
Length of Visible Light
Length of Day
Tomorrow will be .
, % of the Moon is Illuminated

Today's Extremes

State Highs State Lows

Community

WunderPhotos

Upload Photos

1,892,366 photos uploaded!

WunderBlog® & News

Nearby

Air Quality

  Air Quality AQ Index Pollutant
Not available.

Snow Depth

Station Depth Elevation

Earthquake Activity

City Distance Mag. Time & Date
Minimum magnitude displayed is 2.5.

Coastal Water Temperatures

Place Temperature

Stations

Nearby Weather Stations

Station Location Temp. Windchill Dew Point Humidity Wind Precip. Elev Updated Type
                   

Watches & Warnings

There are currently no watches in effect.